Rechercher aéroport 
image banner adimage banner adimage banner ad
image banner ad

KMYF - Montgomery-Gibbs Executive

Situé à San Diego, United States

ICAO - MYF, IATA - MYF

Données fournies par Airmate  

Information générale

Coordonnées: N32°48'57" W117°8'22"
Élévation : 427 feet MSL.
Variation magnétique : 14° East
Voir autres Aéroports à California

Données opérationnelles

Special qualification required
Heure actuelle UTC:
Heure actuelle locale:
Météo
METAR: KMYF 251153Z AUTO 00000KT 9SM OVC012 19/17 A2997 RMK AO2 SLP145 T01940167 10200 20194 55001
Voir NOTAMs / SUP AIP / TFR affectant cet aéroport [VIEW]
Fréquences de communication: [VIEW]

Pistes:

Identifiant RWYQFULongueur (ft)Largeur (ft)SurfaceLDA (ft)
0565°340075OTHER
23245°340075OTHER
10R115°340160ASPH
28L295°340160ASPH
10L115°4598150ASPH
28R295°4598150ASPH

Coordonnées de l'aéroport

Adresse: San Diego United States

Autres services d'aviation

Écoles de pilotage

National Air College

National Air College

San Diego Flight Training International

San Diego Flight Training International
info@sdfti.com+1(858)569-1822

Corporate Helicopters

Corporate Helicopters

Guaranteed Flight Training

Guaranteed Flight Training

Let's Fly San Diego

Let's Fly San Diego

Coast Flight Training

Coast Flight Training
info@iflycoast.com+1(858)279-4359

Learn To Fly San Diego

Learn To Fly San Diego
christopher@sluka.com+1(858)694-0198

Vue satellite de KMYF